sensor_id;sensor_type;location;lat;lon;timestamp;P1;durP1;ratioP1;P2;durP2;ratioP2
71814;SDS011;59659;41.520;23.794;2023-03-11T00:00:27;4.78;;;3.00;;
71814;SDS011;59659;41.520;23.794;2023-03-11T00:01:38;4.25;;;2.28;;
71814;SDS011;59659;41.520;23.794;2023-03-11T00:02:51;4.63;;;2.50;;
71814;SDS011;59659;41.520;23.794;2023-03-11T00:04:03;4.45;;;2.45;;
71814;SDS011;59659;41.520;23.794;2023-03-11T00:05:15;5.05;;;2.55;;
71814;SDS011;59659;41.520;23.794;2023-03-11T00:06:27;2.63;;;2.13;;
71814;SDS011;59659;41.520;23.794;2023-03-11T00:07:39;6.25;;;2.33;;
71814;SDS011;59659;41.520;23.794;2023-03-11T00:08:50;3.85;;;2.08;;
71814;SDS011;59659;41.520;23.794;2023-03-11T00:10:02;4.47;;;1.85;;
71814;SDS011;59659;41.520;23.794;2023-03-11T00:11:14;3.25;;;2.05;;
71814;SDS011;59659;41.520;23.794;2023-03-11T00:12:25;5.20;;;2.50;;
71814;SDS011;59659;41.520;23.794;2023-03-11T00:13:37;6.10;;;2.90;;
71814;SDS011;59659;41.520;23.794;2023-03-11T00:14:49;4.78;;;2.55;;
71814;SDS011;59659;41.520;23.794;2023-03-11T00:16:01;5.40;;;2.97;;
71814;SDS011;59659;41.520;23.794;2023-03-11T00:17:12;6.30;;;3.17;;
71814;SDS011;59659;41.520;23.794;2023-03-11T00:18:24;6.10;;;2.83;;
71814;SDS011;59659;41.520;23.794;2023-03-11T00:19:37;5.90;;;2.63;;
71814;SDS011;59659;41.520;23.794;2023-03-11T00:20:48;4.28;;;2.80;;
71814;SDS011;59659;41.520;23.794;2023-03-11T00:22:01;6.70;;;3.63;;
71814;SDS011;59659;41.520;23.794;2023-03-11T00:23:13;4.35;;;2.70;;
71814;SDS011;59659;41.520;23.794;2023-03-11T00:24:24;6.28;;;3.53;;
71814;SDS011;59659;41.520;23.794;2023-03-11T00:25:36;11.68;;;3.90;;
71814;SDS011;59659;41.520;23.794;2023-03-11T00:26:49;10.38;;;4.60;;
71814;SDS011;59659;41.520;23.794;2023-03-11T00:28:00;6.47;;;3.47;;
71814;SDS011;59659;41.520;23.794;2023-03-11T00:29:12;7.07;;;3.97;;
71814;SDS011;59659;41.520;23.794;2023-03-11T00:30:24;7.50;;;3.40;;
71814;SDS011;59659;41.520;23.794;2023-03-11T00:31:35;7.22;;;3.88;;
71814;SDS011;59659;41.520;23.794;2023-03-11T00:32:47;7.20;;;3.28;;
71814;SDS011;59659;41.520;23.794;2023-03-11T00:33:59;7.93;;;3.72;;
71814;SDS011;59659;41.520;23.794;2023-03-11T00:35:14;10.23;;;3.58;;
71814;SDS011;59659;41.520;23.794;2023-03-11T00:36:27;5.63;;;3.13;;
71814;SDS011;59659;41.520;23.794;2023-03-11T00:37:39;7.90;;;3.03;;
71814;SDS011;59659;41.520;23.794;2023-03-11T00:38:50;8.15;;;2.70;;
71814;SDS011;59659;41.520;23.794;2023-03-11T00:40:02;5.28;;;3.03;;
71814;SDS011;59659;41.520;23.794;2023-03-11T00:41:18;5.47;;;3.17;;
71814;SDS011;59659;41.520;23.794;2023-03-11T00:42:30;4.22;;;2.53;;
71814;SDS011;59659;41.520;23.794;2023-03-11T00:43:41;3.08;;;1.92;;
71814;SDS011;59659;41.520;23.794;2023-03-11T00:44:53;4.40;;;2.40;;
71814;SDS011;59659;41.520;23.794;2023-03-11T00:46:05;4.07;;;2.72;;
71814;SDS011;59659;41.520;23.794;2023-03-11T00:47:16;4.10;;;2.17;;
71814;SDS011;59659;41.520;23.794;2023-03-11T00:48:28;3.97;;;2.40;;
71814;SDS011;59659;41.520;23.794;2023-03-11T00:49:39;4.53;;;2.05;;
71814;SDS011;59659;41.520;23.794;2023-03-11T00:50:51;3.70;;;2.25;;
71814;SDS011;59659;41.520;23.794;2023-03-11T00:52:02;5.50;;;2.72;;
71814;SDS011;59659;41.520;23.794;2023-03-11T00:53:14;9.65;;;2.83;;
71814;SDS011;59659;41.520;23.794;2023-03-11T00:54:26;6.18;;;2.80;;
71814;SDS011;59659;41.520;23.794;2023-03-11T00:55:38;5.00;;;2.42;;
71814;SDS011;59659;41.520;23.794;2023-03-11T00:56:49;4.43;;;2.75;;
71814;SDS011;59659;41.520;23.794;2023-03-11T00:58:02;5.28;;;2.35;;
71814;SDS011;59659;41.520;23.794;2023-03-11T00:59:14;6.70;;;2.58;;
71814;SDS011;59659;41.520;23.794;2023-03-11T01:00:26;3.70;;;2.60;;
71814;SDS011;59659;41.520;23.794;2023-03-11T01:01:37;4.45;;;2.80;;
71814;SDS011;59659;41.520;23.794;2023-03-11T01:02:49;4.63;;;2.08;;
71814;SDS011;59659;41.520;23.794;2023-03-11T01:04:01;10.68;;;4.53;;
71814;SDS011;59659;41.520;23.794;2023-03-11T01:05:13;9.00;;;4.13;;
71814;SDS011;59659;41.520;23.794;2023-03-11T01:06:24;6.22;;;3.78;;
71814;SDS011;59659;41.520;23.794;2023-03-11T01:07:46;4.07;;;2.65;;
71814;SDS011;59659;41.520;23.794;2023-03-11T01:08:57;7.57;;;3.38;;
71814;SDS011;59659;41.520;23.794;2023-03-11T01:10:09;4.43;;;2.53;;
71814;SDS011;59659;41.520;23.794;2023-03-11T01:11:21;6.22;;;2.33;;
71814;SDS011;59659;41.520;23.794;2023-03-11T01:12:32;5.65;;;2.28;;
71814;SDS011;59659;41.520;23.794;2023-03-11T01:13:44;5.93;;;2.88;;
71814;SDS011;59659;41.520;23.794;2023-03-11T01:14:56;3.72;;;2.10;;
71814;SDS011;59659;41.520;23.794;2023-03-11T01:16:07;4.28;;;2.35;;
71814;SDS011;59659;41.520;23.794;2023-03-11T01:17:19;7.28;;;3.40;;
71814;SDS011;59659;41.520;23.794;2023-03-11T01:18:32;3.65;;;2.40;;
71814;SDS011;59659;41.520;23.794;2023-03-11T01:19:44;6.65;;;3.10;;
71814;SDS011;59659;41.520;23.794;2023-03-11T01:20:55;8.48;;;3.15;;
71814;SDS011;59659;41.520;23.794;2023-03-11T01:22:07;8.00;;;3.10;;
71814;SDS011;59659;41.520;23.794;2023-03-11T01:23:19;5.15;;;3.13;;
71814;SDS011;59659;41.520;23.794;2023-03-11T01:24:30;8.40;;;2.78;;
71814;SDS011;59659;41.520;23.794;2023-03-11T01:25:42;6.13;;;2.70;;
71814;SDS011;59659;41.520;23.794;2023-03-11T01:26:53;7.70;;;3.42;;
71814;SDS011;59659;41.520;23.794;2023-03-11T01:28:05;5.15;;;2.65;;
71814;SDS011;59659;41.520;23.794;2023-03-11T01:29:18;5.78;;;2.90;;
71814;SDS011;59659;41.520;23.794;2023-03-11T01:30:30;4.75;;;3.03;;
71814;SDS011;59659;41.520;23.794;2023-03-11T01:31:41;3.22;;;1.35;;
71814;SDS011;59659;41.520;23.794;2023-03-11T01:32:53;6.00;;;1.30;;
71814;SDS011;59659;41.520;23.794;2023-03-11T01:34:05;3.33;;;0.50;;
71814;SDS011;59659;41.520;23.794;2023-03-11T01:35:17;0.90;;;0.63;;
71814;SDS011;59659;41.520;23.794;2023-03-11T01:36:29;0.93;;;0.57;;
71814;SDS011;59659;41.520;23.794;2023-03-11T01:37:40;0.30;;;0.30;;
71814;SDS011;59659;41.520;23.794;2023-03-11T01:38:52;1.67;;;0.95;;
71814;SDS011;59659;41.520;23.794;2023-03-11T01:40:04;2.15;;;0.60;;
71814;SDS011;59659;41.520;23.794;2023-03-11T01:41:16;0.70;;;0.55;;
71814;SDS011;59659;41.520;23.794;2023-03-11T01:42:27;0.60;;;0.40;;
71814;SDS011;59659;41.520;23.794;2023-03-11T01:43:45;0.85;;;0.40;;
71814;SDS011;59659;41.520;23.794;2023-03-11T01:44:57;3.58;;;1.02;;
71814;SDS011;59659;41.520;23.794;2023-03-11T01:47:36;1.83;;;0.90;;
71814;SDS011;59659;41.520;23.794;2023-03-11T01:48:48;3.88;;;1.23;;
71814;SDS011;59659;41.520;23.794;2023-03-11T01:50:01;1.33;;;0.45;;
71814;SDS011;59659;41.520;23.794;2023-03-11T01:51:14;0.10;;;0.10;;
71814;SDS011;59659;41.520;23.794;2023-03-11T01:52:26;1.48;;;0.35;;
71814;SDS011;59659;41.520;23.794;2023-03-11T01:53:38;7.32;;;0.57;;
71814;SDS011;59659;41.520;23.794;2023-03-11T01:54:50;2.97;;;0.70;;
71814;SDS011;59659;41.520;23.794;2023-03-11T01:56:02;0.32;;;0.32;;
71814;SDS011;59659;41.520;23.794;2023-03-11T01:57:15;0.20;;;0.20;;
71814;SDS011;59659;41.520;23.794;2023-03-11T01:58:27;0.47;;;0.20;;
71814;SDS011;59659;41.520;23.794;2023-03-11T01:59:44;1.13;;;0.30;;
71814;SDS011;59659;41.520;23.794;2023-03-11T02:00:57;2.42;;;0.55;;
71814;SDS011;59659;41.520;23.794;2023-03-11T02:03:28;0.73;;;0.38;;
71814;SDS011;59659;41.520;23.794;2023-03-11T02:04:41;0.70;;;0.38;;
71814;SDS011;59659;41.520;23.794;2023-03-11T02:05:53;0.20;;;0.20;;
71814;SDS011;59659;41.520;23.794;2023-03-11T02:07:06;2.10;;;0.52;;
71814;SDS011;59659;41.520;23.794;2023-03-11T02:08:17;0.25;;;0.25;;
71814;SDS011;59659;41.520;23.794;2023-03-11T02:09:29;1.23;;;0.40;;
71814;SDS011;59659;41.520;23.794;2023-03-11T02:10:40;1.98;;;0.50;;
71814;SDS011;59659;41.520;23.794;2023-03-11T02:11:52;0.40;;;0.40;;
71814;SDS011;59659;41.520;23.794;2023-03-11T02:13:04;1.48;;;0.40;;
71814;SDS011;59659;41.520;23.794;2023-03-11T02:14:16;0.25;;;0.25;;
71814;SDS011;59659;41.520;23.794;2023-03-11T02:15:27;0.20;;;0.20;;
71814;SDS011;59659;41.520;23.794;2023-03-11T02:16:39;0.28;;;0.20;;
71814;SDS011;59659;41.520;23.794;2023-03-11T02:17:51;1.85;;;0.70;;
71814;SDS011;59659;41.520;23.794;2023-03-11T02:19:07;0.38;;;0.30;;
71814;SDS011;59659;41.520;23.794;2023-03-11T02:21:00;1.10;;;0.40;;
71814;SDS011;59659;41.520;23.794;2023-03-11T02:22:00;0.82;;;0.60;;
71814;SDS011;59659;41.520;23.794;2023-03-11T02:23:13;1.30;;;0.57;;
71814;SDS011;59659;41.520;23.794;2023-03-11T02:25:55;0.32;;;0.30;;
71814;SDS011;59659;41.520;23.794;2023-03-11T02:27:09;2.45;;;0.40;;
71814;SDS011;59659;41.520;23.794;2023-03-11T02:28:22;0.63;;;0.32;;
71814;SDS011;59659;41.520;23.794;2023-03-11T02:29:34;0.80;;;0.80;;
71814;SDS011;59659;41.520;23.794;2023-03-11T02:30:46;0.85;;;0.40;;
71814;SDS011;59659;41.520;23.794;2023-03-11T02:31:59;0.30;;;0.30;;
71814;SDS011;59659;41.520;23.794;2023-03-11T02:33:12;0.32;;;0.30;;
71814;SDS011;59659;41.520;23.794;2023-03-11T02:34:25;0.30;;;0.30;;
71814;SDS011;59659;41.520;23.794;2023-03-11T02:35:37;1.23;;;0.80;;
71814;SDS011;59659;41.520;23.794;2023-03-11T02:36:48;0.50;;;0.45;;
71814;SDS011;59659;41.520;23.794;2023-03-11T02:38:00;1.48;;;0.47;;
71814;SDS011;59659;41.520;23.794;2023-03-11T02:39:11;0.73;;;0.30;;
71814;SDS011;59659;41.520;23.794;2023-03-11T02:41:36;2.63;;;0.50;;
71814;SDS011;59659;41.520;23.794;2023-03-11T02:42:52;0.77;;;0.57;;
71814;SDS011;59659;41.520;23.794;2023-03-11T02:44:08;1.48;;;0.30;;
71814;SDS011;59659;41.520;23.794;2023-03-11T02:45:21;0.30;;;0.30;;
71814;SDS011;59659;41.520;23.794;2023-03-11T02:46:35;3.00;;;0.68;;
71814;SDS011;59659;41.520;23.794;2023-03-11T02:47:47;0.32;;;0.30;;
71814;SDS011;59659;41.520;23.794;2023-03-11T02:48:59;0.45;;;0.40;;
71814;SDS011;59659;41.520;23.794;2023-03-11T02:50:11;0.30;;;0.30;;
71814;SDS011;59659;41.520;23.794;2023-03-11T02:51:23;0.28;;;0.28;;
71814;SDS011;59659;41.520;23.794;2023-03-11T02:52:35;0.40;;;0.38;;
71814;SDS011;59659;41.520;23.794;2023-03-11T02:53:48;0.50;;;0.50;;
71814;SDS011;59659;41.520;23.794;2023-03-11T02:55:01;1.95;;;0.60;;
71814;SDS011;59659;41.520;23.794;2023-03-11T02:56:12;1.25;;;0.40;;
71814;SDS011;59659;41.520;23.794;2023-03-11T02:57:24;0.98;;;0.52;;
71814;SDS011;59659;41.520;23.794;2023-03-11T02:58:35;4.85;;;0.40;;
71814;SDS011;59659;41.520;23.794;2023-03-11T02:59:47;1.08;;;0.60;;
71814;SDS011;59659;41.520;23.794;2023-03-11T03:00:58;0.38;;;0.35;;
71814;SDS011;59659;41.520;23.794;2023-03-11T03:02:10;0.82;;;0.55;;
71814;SDS011;59659;41.520;23.794;2023-03-11T03:03:21;0.40;;;0.38;;
71814;SDS011;59659;41.520;23.794;2023-03-11T03:04:33;0.65;;;0.35;;
71814;SDS011;59659;41.520;23.794;2023-03-11T03:05:45;0.30;;;0.30;;
71814;SDS011;59659;41.520;23.794;2023-03-11T03:06:56;0.82;;;0.40;;
71814;SDS011;59659;41.520;23.794;2023-03-11T03:08:08;0.52;;;0.40;;
71814;SDS011;59659;41.520;23.794;2023-03-11T03:09:19;0.55;;;0.43;;
71814;SDS011;59659;41.520;23.794;2023-03-11T03:10:31;0.45;;;0.35;;
71814;SDS011;59659;41.520;23.794;2023-03-11T03:11:42;0.30;;;0.30;;
71814;SDS011;59659;41.520;23.794;2023-03-11T03:12:54;0.20;;;0.20;;
71814;SDS011;59659;41.520;23.794;2023-03-11T03:14:05;0.57;;;0.57;;
71814;SDS011;59659;41.520;23.794;2023-03-11T03:15:16;3.00;;;1.13;;
71814;SDS011;59659;41.520;23.794;2023-03-11T03:16:28;0.40;;;0.40;;
71814;SDS011;59659;41.520;23.794;2023-03-11T03:17:39;5.03;;;1.40;;
71814;SDS011;59659;41.520;23.794;2023-03-11T03:18:51;4.90;;;2.28;;
71814;SDS011;59659;41.520;23.794;2023-03-11T03:20:03;6.88;;;2.00;;
71814;SDS011;59659;41.520;23.794;2023-03-11T03:21:17;6.30;;;2.15;;
71814;SDS011;59659;41.520;23.794;2023-03-11T03:22:29;4.22;;;1.63;;
71814;SDS011;59659;41.520;23.794;2023-03-11T03:23:40;2.30;;;0.80;;
71814;SDS011;59659;41.520;23.794;2023-03-11T03:24:52;0.45;;;0.45;;
71814;SDS011;59659;41.520;23.794;2023-03-11T03:26:04;0.95;;;0.52;;
71814;SDS011;59659;41.520;23.794;2023-03-11T03:27:15;0.82;;;0.65;;
71814;SDS011;59659;41.520;23.794;2023-03-11T03:28:27;1.85;;;0.60;;
71814;SDS011;59659;41.520;23.794;2023-03-11T03:29:38;0.50;;;0.50;;
71814;SDS011;59659;41.520;23.794;2023-03-11T03:30:50;0.95;;;0.50;;
71814;SDS011;59659;41.520;23.794;2023-03-11T03:32:01;0.98;;;0.43;;
71814;SDS011;59659;41.520;23.794;2023-03-11T03:33:13;1.35;;;0.90;;
71814;SDS011;59659;41.520;23.794;2023-03-11T03:34:24;0.55;;;0.50;;
71814;SDS011;59659;41.520;23.794;2023-03-11T03:35:41;0.43;;;0.40;;
71814;SDS011;59659;41.520;23.794;2023-03-11T03:36:52;0.70;;;0.50;;
71814;SDS011;59659;41.520;23.794;2023-03-11T03:38:04;0.32;;;0.30;;
71814;SDS011;59659;41.520;23.794;2023-03-11T03:39:15;0.20;;;0.20;;
71814;SDS011;59659;41.520;23.794;2023-03-11T03:40:29;0.93;;;0.40;;
71814;SDS011;59659;41.520;23.794;2023-03-11T03:41:41;0.47;;;0.30;;
71814;SDS011;59659;41.520;23.794;2023-03-11T03:42:52;0.30;;;0.30;;
71814;SDS011;59659;41.520;23.794;2023-03-11T03:44:04;0.40;;;0.28;;
71814;SDS011;59659;41.520;23.794;2023-03-11T03:45:15;0.38;;;0.38;;
71814;SDS011;59659;41.520;23.794;2023-03-11T03:46:27;0.20;;;0.20;;
71814;SDS011;59659;41.520;23.794;2023-03-11T03:47:38;0.65;;;0.30;;
71814;SDS011;59659;41.520;23.794;2023-03-11T03:48:50;0.35;;;0.30;;
71814;SDS011;59659;41.520;23.794;2023-03-11T03:50:02;0.28;;;0.28;;
71814;SDS011;59659;41.520;23.794;2023-03-11T03:51:14;0.30;;;0.30;;
71814;SDS011;59659;41.520;23.794;2023-03-11T03:52:26;0.68;;;0.43;;
71814;SDS011;59659;41.520;23.794;2023-03-11T03:53:37;0.40;;;0.30;;
71814;SDS011;59659;41.520;23.794;2023-03-11T03:54:49;0.85;;;0.40;;
71814;SDS011;59659;41.520;23.794;2023-03-11T03:56:04;0.40;;;0.40;;
71814;SDS011;59659;41.520;23.794;2023-03-11T03:57:16;1.10;;;0.50;;
71814;SDS011;59659;41.520;23.794;2023-03-11T03:58:27;1.52;;;0.50;;
71814;SDS011;59659;41.520;23.794;2023-03-11T03:59:39;0.73;;;0.40;;
71814;SDS011;59659;41.520;23.794;2023-03-11T04:00:54;0.55;;;0.43;;
71814;SDS011;59659;41.520;23.794;2023-03-11T04:02:05;3.22;;;0.70;;
71814;SDS011;59659;41.520;23.794;2023-03-11T04:03:17;0.47;;;0.30;;
71814;SDS011;59659;41.520;23.794;2023-03-11T04:04:29;0.30;;;0.30;;
71814;SDS011;59659;41.520;23.794;2023-03-11T04:05:40;0.38;;;0.38;;
71814;SDS011;59659;41.520;23.794;2023-03-11T04:06:52;0.47;;;0.28;;
71814;SDS011;59659;41.520;23.794;2023-03-11T04:08:03;0.38;;;0.38;;
71814;SDS011;59659;41.520;23.794;2023-03-11T04:09:15;1.10;;;0.75;;
71814;SDS011;59659;41.520;23.794;2023-03-11T04:10:26;3.05;;;1.02;;
71814;SDS011;59659;41.520;23.794;2023-03-11T04:11:38;27.42;;;8.93;;
71814;SDS011;59659;41.520;23.794;2023-03-11T04:12:49;9.35;;;3.13;;
71814;SDS011;59659;41.520;23.794;2023-03-11T04:14:01;15.27;;;5.50;;
71814;SDS011;59659;41.520;23.794;2023-03-11T04:15:13;6.47;;;1.70;;
71814;SDS011;59659;41.520;23.794;2023-03-11T04:16:24;1.88;;;1.20;;
71814;SDS011;59659;41.520;23.794;2023-03-11T04:17:36;1.35;;;0.80;;
71814;SDS011;59659;41.520;23.794;2023-03-11T04:18:48;1.30;;;0.57;;
71814;SDS011;59659;41.520;23.794;2023-03-11T04:19:59;1.63;;;0.90;;
71814;SDS011;59659;41.520;23.794;2023-03-11T04:21:11;1.88;;;0.90;;
71814;SDS011;59659;41.520;23.794;2023-03-11T04:22:22;1.38;;;0.95;;
71814;SDS011;59659;41.520;23.794;2023-03-11T04:23:34;0.50;;;0.50;;
71814;SDS011;59659;41.520;23.794;2023-03-11T04:24:45;0.40;;;0.40;;
71814;SDS011;59659;41.520;23.794;2023-03-11T04:25:57;0.70;;;0.60;;
71814;SDS011;59659;41.520;23.794;2023-03-11T04:27:08;1.85;;;0.80;;
71814;SDS011;59659;41.520;23.794;2023-03-11T04:28:20;2.83;;;1.33;;
71814;SDS011;59659;41.520;23.794;2023-03-11T04:29:31;3.08;;;1.10;;
71814;SDS011;59659;41.520;23.794;2023-03-11T04:30:43;3.03;;;0.95;;
71814;SDS011;59659;41.520;23.794;2023-03-11T04:31:54;2.72;;;1.13;;
71814;SDS011;59659;41.520;23.794;2023-03-11T04:33:06;1.60;;;0.65;;
71814;SDS011;59659;41.520;23.794;2023-03-11T04:34:17;1.52;;;0.85;;
71814;SDS011;59659;41.520;23.794;2023-03-11T04:35:29;1.98;;;0.80;;
71814;SDS011;59659;41.520;23.794;2023-03-11T04:36:40;0.95;;;0.70;;
71814;SDS011;59659;41.520;23.794;2023-03-11T04:37:52;0.95;;;0.57;;
71814;SDS011;59659;41.520;23.794;2023-03-11T04:39:03;1.20;;;0.70;;
71814;SDS011;59659;41.520;23.794;2023-03-11T04:40:15;1.00;;;0.90;;
71814;SDS011;59659;41.520;23.794;2023-03-11T04:41:27;1.42;;;0.90;;
71814;SDS011;59659;41.520;23.794;2023-03-11T04:42:38;1.42;;;0.80;;
71814;SDS011;59659;41.520;23.794;2023-03-11T04:43:50;1.63;;;0.70;;
71814;SDS011;59659;41.520;23.794;2023-03-11T04:45:01;0.88;;;0.70;;
71814;SDS011;59659;41.520;23.794;2023-03-11T04:46:13;1.17;;;0.80;;
71814;SDS011;59659;41.520;23.794;2023-03-11T04:47:24;2.25;;;0.70;;
71814;SDS011;59659;41.520;23.794;2023-03-11T04:48:36;0.75;;;0.60;;
71814;SDS011;59659;41.520;23.794;2023-03-11T04:49:48;1.10;;;0.82;;
71814;SDS011;59659;41.520;23.794;2023-03-11T04:50:59;5.10;;;1.90;;
71814;SDS011;59659;41.520;23.794;2023-03-11T04:52:11;4.68;;;2.08;;
71814;SDS011;59659;41.520;23.794;2023-03-11T04:53:22;2.78;;;1.45;;
71814;SDS011;59659;41.520;23.794;2023-03-11T04:54:34;1.58;;;1.10;;
71814;SDS011;59659;41.520;23.794;2023-03-11T04:55:45;3.28;;;1.33;;
71814;SDS011;59659;41.520;23.794;2023-03-11T04:56:58;3.17;;;1.17;;
71814;SDS011;59659;41.520;23.794;2023-03-11T04:58:09;3.20;;;1.38;;
71814;SDS011;59659;41.520;23.794;2023-03-11T04:59:20;6.88;;;3.25;;
71814;SDS011;59659;41.520;23.794;2023-03-11T05:00:32;6.80;;;2.90;;
71814;SDS011;59659;41.520;23.794;2023-03-11T05:01:44;5.80;;;2.53;;
71814;SDS011;59659;41.520;23.794;2023-03-11T05:02:55;25.38;;;16.52;;
71814;SDS011;59659;41.520;23.794;2023-03-11T05:04:07;11.77;;;6.90;;
71814;SDS011;59659;41.520;23.794;2023-03-11T05:05:18;15.40;;;9.35;;
71814;SDS011;59659;41.520;23.794;2023-03-11T05:06:30;10.32;;;5.22;;
71814;SDS011;59659;41.520;23.794;2023-03-11T05:07:42;27.05;;;11.68;;
71814;SDS011;59659;41.520;23.794;2023-03-11T05:08:53;19.25;;;9.18;;
71814;SDS011;59659;41.520;23.794;2023-03-11T05:10:05;10.75;;;5.40;;
71814;SDS011;59659;41.520;23.794;2023-03-11T05:11:19;8.23;;;3.95;;
71814;SDS011;59659;41.520;23.794;2023-03-11T05:12:30;9.18;;;3.92;;
71814;SDS011;59659;41.520;23.794;2023-03-11T05:13:42;2.85;;;1.90;;
71814;SDS011;59659;41.520;23.794;2023-03-11T05:14:53;2.00;;;1.60;;
71814;SDS011;59659;41.520;23.794;2023-03-11T05:16:05;1.88;;;1.40;;
71814;SDS011;59659;41.520;23.794;2023-03-11T05:17:16;3.05;;;1.20;;
71814;SDS011;59659;41.520;23.794;2023-03-11T05:18:29;2.75;;;1.10;;
71814;SDS011;59659;41.520;23.794;2023-03-11T05:19:42;2.45;;;1.00;;
71814;SDS011;59659;41.520;23.794;2023-03-11T05:20:55;4.95;;;0.80;;
71814;SDS011;59659;41.520;23.794;2023-03-11T05:22:06;2.20;;;1.08;;
71814;SDS011;59659;41.520;23.794;2023-03-11T05:23:18;3.22;;;2.40;;
71814;SDS011;59659;41.520;23.794;2023-03-11T05:24:30;2.13;;;1.55;;
71814;SDS011;59659;41.520;23.794;2023-03-11T05:25:41;3.40;;;1.25;;
71814;SDS011;59659;41.520;23.794;2023-03-11T05:26:53;3.53;;;1.00;;
71814;SDS011;59659;41.520;23.794;2023-03-11T05:28:04;1.23;;;0.80;;
71814;SDS011;59659;41.520;23.794;2023-03-11T05:29:16;5.57;;;3.65;;
71814;SDS011;59659;41.520;23.794;2023-03-11T05:30:27;1.80;;;1.27;;
71814;SDS011;59659;41.520;23.794;2023-03-11T05:31:39;6.68;;;4.28;;
71814;SDS011;59659;41.520;23.794;2023-03-11T05:32:50;12.07;;;7.43;;
71814;SDS011;59659;41.520;23.794;2023-03-11T05:34:02;9.93;;;5.70;;
71814;SDS011;59659;41.520;23.794;2023-03-11T05:35:13;10.07;;;6.03;;
71814;SDS011;59659;41.520;23.794;2023-03-11T05:36:25;7.95;;;4.80;;
71814;SDS011;59659;41.520;23.794;2023-03-11T05:37:37;9.07;;;5.22;;
71814;SDS011;59659;41.520;23.794;2023-03-11T05:38:49;7.80;;;4.55;;
71814;SDS011;59659;41.520;23.794;2023-03-11T05:40:04;5.97;;;3.22;;
71814;SDS011;59659;41.520;23.794;2023-03-11T05:41:17;2.92;;;2.45;;
71814;SDS011;59659;41.520;23.794;2023-03-11T05:42:29;1.75;;;1.45;;
71814;SDS011;59659;41.520;23.794;2023-03-11T05:43:40;6.28;;;1.25;;
71814;SDS011;59659;41.520;23.794;2023-03-11T05:44:51;0.98;;;0.90;;
71814;SDS011;59659;41.520;23.794;2023-03-11T05:46:03;0.95;;;0.70;;
71814;SDS011;59659;41.520;23.794;2023-03-11T05:47:15;1.60;;;0.73;;
71814;SDS011;59659;41.520;23.794;2023-03-11T05:48:27;0.90;;;0.85;;
71814;SDS011;59659;41.520;23.794;2023-03-11T05:49:38;0.70;;;0.70;;
71814;SDS011;59659;41.520;23.794;2023-03-11T05:50:49;1.73;;;1.40;;
71814;SDS011;59659;41.520;23.794;2023-03-11T05:52:01;1.33;;;1.00;;
71814;SDS011;59659;41.520;23.794;2023-03-11T05:53:13;2.97;;;1.08;;
71814;SDS011;59659;41.520;23.794;2023-03-11T05:54:24;1.77;;;1.10;;
71814;SDS011;59659;41.520;23.794;2023-03-11T05:55:35;1.00;;;0.90;;
71814;SDS011;59659;41.520;23.794;2023-03-11T05:56:47;1.95;;;1.20;;
71814;SDS011;59659;41.520;23.794;2023-03-11T05:57:59;5.90;;;1.27;;
71814;SDS011;59659;41.520;23.794;2023-03-11T05:59:11;4.85;;;1.98;;
71814;SDS011;59659;41.520;23.794;2023-03-11T06:00:26;3.47;;;2.38;;
71814;SDS011;59659;41.520;23.794;2023-03-11T06:01:40;2.42;;;1.55;;
71814;SDS011;59659;41.520;23.794;2023-03-11T06:02:51;3.83;;;1.85;;
71814;SDS011;59659;41.520;23.794;2023-03-11T06:04:03;3.83;;;1.70;;
71814;SDS011;59659;41.520;23.794;2023-03-11T06:05:15;3.67;;;2.10;;
71814;SDS011;59659;41.520;23.794;2023-03-11T06:06:27;5.00;;;2.28;;
71814;SDS011;59659;41.520;23.794;2023-03-11T06:07:39;5.70;;;2.22;;
71814;SDS011;59659;41.520;23.794;2023-03-11T06:08:50;6.90;;;3.70;;
71814;SDS011;59659;41.520;23.794;2023-03-11T06:10:02;11.32;;;6.43;;
71814;SDS011;59659;41.520;23.794;2023-03-11T06:11:14;10.20;;;4.38;;
71814;SDS011;59659;41.520;23.794;2023-03-11T06:12:25;15.90;;;8.85;;
71814;SDS011;59659;41.520;23.794;2023-03-11T06:13:37;10.95;;;6.13;;
71814;SDS011;59659;41.520;23.794;2023-03-11T06:14:48;20.77;;;10.70;;
71814;SDS011;59659;41.520;23.794;2023-03-11T06:16:00;31.23;;;15.93;;
71814;SDS011;59659;41.520;23.794;2023-03-11T06:17:11;32.15;;;16.73;;
71814;SDS011;59659;41.520;23.794;2023-03-11T06:18:23;24.48;;;13.32;;
71814;SDS011;59659;41.520;23.794;2023-03-11T06:19:37;24.13;;;10.98;;
71814;SDS011;59659;41.520;23.794;2023-03-11T06:20:48;16.77;;;7.10;;
71814;SDS011;59659;41.520;23.794;2023-03-11T06:22:00;6.82;;;3.75;;
71814;SDS011;59659;41.520;23.794;2023-03-11T06:23:12;5.82;;;3.30;;
71814;SDS011;59659;41.520;23.794;2023-03-11T06:24:23;5.07;;;2.60;;
71814;SDS011;59659;41.520;23.794;2023-03-11T06:25:35;9.52;;;4.60;;
71814;SDS011;59659;41.520;23.794;2023-03-11T06:26:49;8.38;;;5.28;;
71814;SDS011;59659;41.520;23.794;2023-03-11T06:28:01;7.28;;;4.80;;
71814;SDS011;59659;41.520;23.794;2023-03-11T06:29:13;6.57;;;3.72;;
71814;SDS011;59659;41.520;23.794;2023-03-11T06:30:25;4.38;;;2.58;;
71814;SDS011;59659;41.520;23.794;2023-03-11T06:31:36;5.53;;;3.28;;
71814;SDS011;59659;41.520;23.794;2023-03-11T06:32:50;4.72;;;2.65;;
71814;SDS011;59659;41.520;23.794;2023-03-11T06:34:02;3.40;;;1.73;;
71814;SDS011;59659;41.520;23.794;2023-03-11T06:35:14;4.57;;;1.90;;
71814;SDS011;59659;41.520;23.794;2023-03-11T06:36:25;2.28;;;1.35;;
71814;SDS011;59659;41.520;23.794;2023-03-11T06:37:37;2.13;;;1.13;;
71814;SDS011;59659;41.520;23.794;2023-03-11T06:38:52;3.50;;;1.73;;
71814;SDS011;59659;41.520;23.794;2023-03-11T06:40:04;3.10;;;1.80;;
71814;SDS011;59659;41.520;23.794;2023-03-11T06:41:17;2.88;;;1.65;;
71814;SDS011;59659;41.520;23.794;2023-03-11T06:42:29;3.00;;;1.60;;
71814;SDS011;59659;41.520;23.794;2023-03-11T06:43:40;3.55;;;2.05;;
71814;SDS011;59659;41.520;23.794;2023-03-11T06:44:52;4.07;;;2.35;;
71814;SDS011;59659;41.520;23.794;2023-03-11T06:46:08;4.07;;;2.35;;
71814;SDS011;59659;41.520;23.794;2023-03-11T06:47:20;5.82;;;3.20;;
71814;SDS011;59659;41.520;23.794;2023-03-11T06:48:31;4.93;;;2.25;;
71814;SDS011;59659;41.520;23.794;2023-03-11T06:49:43;6.75;;;3.30;;
71814;SDS011;59659;41.520;23.794;2023-03-11T06:50:58;7.88;;;3.70;;
71814;SDS011;59659;41.520;23.794;2023-03-11T06:52:09;8.32;;;3.67;;
71814;SDS011;59659;41.520;23.794;2023-03-11T06:53:21;9.38;;;4.78;;
71814;SDS011;59659;41.520;23.794;2023-03-11T06:54:33;6.05;;;3.08;;
71814;SDS011;59659;41.520;23.794;2023-03-11T06:55:44;4.75;;;2.88;;
71814;SDS011;59659;41.520;23.794;2023-03-11T06:56:55;5.00;;;2.67;;
71814;SDS011;59659;41.520;23.794;2023-03-11T06:58:07;9.57;;;3.08;;
71814;SDS011;59659;41.520;23.794;2023-03-11T06:59:18;6.03;;;3.25;;
71814;SDS011;59659;41.520;23.794;2023-03-11T07:00:31;10.18;;;5.05;;
71814;SDS011;59659;41.520;23.794;2023-03-11T07:01:42;9.57;;;5.00;;
71814;SDS011;59659;41.520;23.794;2023-03-11T07:02:54;13.57;;;4.47;;
71814;SDS011;59659;41.520;23.794;2023-03-11T07:04:05;6.63;;;3.85;;
71814;SDS011;59659;41.520;23.794;2023-03-11T07:05:17;9.30;;;3.55;;
71814;SDS011;59659;41.520;23.794;2023-03-11T07:06:28;6.38;;;3.38;;
71814;SDS011;59659;41.520;23.794;2023-03-11T07:07:40;7.85;;;3.60;;
71814;SDS011;59659;41.520;23.794;2023-03-11T07:08:51;10.48;;;5.15;;
71814;SDS011;59659;41.520;23.794;2023-03-11T07:10:04;10.80;;;5.55;;
71814;SDS011;59659;41.520;23.794;2023-03-11T07:11:17;14.45;;;5.95;;
71814;SDS011;59659;41.520;23.794;2023-03-11T07:12:29;14.80;;;7.05;;